Aérodrome :
LOGIN :

S'inscrire | Disclaimer

   EN    FR    IT 

 










Légende :    VFR   VFR Marginal   IFR   IFR Intensif   IFR Très Intensif
Visi : 
Plafond : 
>= 8 km
>= 3000ft
5 à 8 km
1000 à 3000 ft
1500m à 5 km
500 à 1000 ft
800 à 1500m
200 à 500 ft
< 800m
< 200 ft
Symboles :   Orages  Brouillard  Fortes neiges  Fortes précipitations  Vent > 20 kt
SIGMETs :   Divers  Orages  Givrage  Turbulence  Onde Orograph.  Cendres Volcan.







- Altitude de l'aérodrome : 1234 ft
- Code IATA : LUX


ELLX - Luxembourg Findel

DERNIER METAR :
  • 270620Z 09005KT 050V130 CAVOK 07/04 Q1014 NOSIG

METARs EXPIRÉS :
  • 270550Z 05006KT CAVOK 06/03 Q1014 NOSIG
  • 270520Z AUTO 06006KT 9999 NCD 05/03 Q1014 NOSIG
  • 270450Z 07006KT CAVOK 05/03 Q1014 NOSIG
  • 270420Z 07005KT CAVOK 04/02 Q1014 NOSIG
  • 270350Z 09004KT CAVOK 05/03 Q1015 NOSIG

TAF TAF ELLX
Valide du 27 à 06h jusqu'au 28 à 12h UTC


270500Z 2706/2812 07005KT CAVOK
BECMG 2706/2709 13007KT
BECMG 2714/2718 23008KT
ATIS : +352 4798 27300
Météo : +352 4798 27010 / 27050
Pas de NOTAMs connus pour ce terrain.



MET'MAP, la Météo Aéronautique d'un coup d'oeil ! - Copyright ORBIFLY Décembre 2007 - Disclaimer

ORBIFLY MET'MAP TEAM :

Programmation & Développement : Alexandra Zaïnal
Conception & Développement : Baudouin d'Aumeries
Co-Programmation & Développement : Marc-Olivier Méhu
Soutien technique & logistique : Manuel Goepfert

Contact : metmap@orbifly.com




SOURCES & CREDITS :

   NOAA